Time;durP1;ratioP1;P1;durP2;ratioP2;P2;SDS_P1;SDS_P2;PMS_P1;PMS_P2;Temp;Humidity;BMP_temperature;BMP_pressure;BME280_temperature;BME280_humidity;BME280_pressure;Samples;Min_cycle;Max_cycle;Signal;HPM_P1;HPM_P2
2022/01/03 00:00:30;;;;;;;18.05;3.75;;;8.30;99.90;;;;;;6182407;23;20025;-84
2022/01/03 00:02:59;;;;;;;17.10;1.85;;;8.30;99.90;;;;;;6160114;23;20021;-86
2022/01/03 00:05:26;;;;;;;18.38;2.38;;;8.30;99.90;;;;;;6187688;23;20017;-86
2022/01/03 00:07:52;;;;;;;8.27;1.90;;;8.30;99.90;;;;;;6184572;23;20017;-85
2022/01/03 00:10:19;;;;;;;11.88;2.53;;;8.40;99.90;;;;;;6158325;23;20528;-85
2022/01/03 00:12:54;;;;;;;20.05;2.10;;;8.40;99.90;;;;;;6136924;23;20028;-85
2022/01/03 00:15:24;;;;;;;18.50;2.47;;;8.40;99.90;;;;;;6159395;23;20021;-86
2022/01/03 00:17:56;;;;;;;12.20;2.08;;;8.40;99.90;;;;;;6159644;23;20017;-85
2022/01/03 00:20:26;;;;;;;20.05;2.63;;;8.40;99.90;;;;;;6158844;23;20504;-84
2022/01/03 00:23:03;;;;;;;11.18;2.65;;;8.40;99.90;;;;;;6176565;23;20079;-85
2022/01/03 00:25:29;;;;;;;13.75;3.58;;;8.40;99.90;;;;;;6187079;23;20341;-85
2022/01/03 00:28:11;;;;;;;21.92;3.42;;;8.40;99.90;;;;;;6187588;23;20021;-85
2022/01/03 00:30:38;;;;;;;12.32;2.33;;;8.40;99.90;;;;;;6186149;23;20025;-85
2022/01/03 00:33:04;;;;;;;17.63;2.33;;;8.40;99.90;;;;;;6183945;23;20025;-82
2022/01/03 00:35:33;;;;;;;17.55;4.18;;;8.40;99.90;;;;;;6185650;23;20025;-84
2022/01/03 00:38:00;;;;;;;11.25;2.30;;;8.50;99.90;;;;;;6185479;23;20029;-84
2022/01/03 00:40:26;;;;;;;24.65;2.72;;;8.50;99.90;;;;;;6158920;23;20366;-87
2022/01/03 00:42:52;;;;;;;19.60;3.17;;;8.50;99.90;;;;;;6159458;23;20349;-84
2022/01/03 00:45:18;;;;;;;25.90;4.57;;;8.40;99.90;;;;;;6185624;23;20053;-84
2022/01/03 00:47:45;;;;;;;20.67;3.03;;;8.40;99.90;;;;;;6183965;23;20083;-85
2022/01/03 00:50:17;;;;;;;19.38;3.38;;;8.40;99.90;;;;;;6134102;23;20027;-84
2022/01/03 00:53:04;;;;;;;20.45;3.38;;;8.40;99.90;;;;;;6139198;23;20032;-84
2022/01/03 00:55:52;;;;;;;19.45;2.90;;;8.40;99.90;;;;;;6184073;23;20074;-85
2022/01/03 00:58:20;;;;;;;21.35;3.30;;;8.40;99.90;;;;;;6159768;23;20063;-84
2022/01/03 01:00:54;;;;;;;23.98;3.40;;;8.40;99.90;;;;;;6186355;23;20035;-83
2022/01/03 01:03:25;;;;;;;21.20;3.20;;;8.40;99.90;;;;;;6135413;23;20453;-84
2022/01/03 01:06:02;;;;;;;20.85;4.20;;;8.40;99.90;;;;;;6110028;23;20056;-83
2022/01/03 01:08:28;;;;;;;27.05;3.35;;;8.40;99.90;;;;;;6110009;23;20123;-85
2022/01/03 01:10:58;;;;;;;21.73;4.68;;;8.40;99.90;;;;;;6134411;23;20063;-84
2022/01/03 01:13:24;;;;;;;19.52;2.97;;;8.40;99.90;;;;;;6134495;23;20074;-84
2022/01/03 01:16:03;;;;;;;26.13;4.75;;;8.40;99.90;;;;;;6158724;23;20021;-85
2022/01/03 01:18:31;;;;;;;17.40;3.35;;;8.40;99.90;;;;;;6158579;23;20349;-85
2022/01/03 01:20:59;;;;;;;20.80;4.53;;;8.50;99.90;;;;;;6159014;23;20025;-83
2022/01/03 01:23:25;;;;;;;28.05;4.78;;;8.50;99.90;;;;;;6186546;23;20017;-85
2022/01/03 01:28:17;;;;;;;31.83;6.22;;;8.40;99.90;;;;;;6183797;23;20024;-85
2022/01/03 01:30:44;;;;;;;21.40;4.10;;;8.40;99.90;;;;;;6185696;23;20104;-84
2022/01/03 01:33:14;;;;;;;22.05;4.80;;;8.40;99.90;;;;;;6187744;23;20017;-86
2022/01/03 01:35:48;;;;;;;21.73;4.68;;;8.40;99.90;;;;;;6190856;23;20025;-84
2022/01/03 01:38:22;;;;;;;36.70;5.88;;;8.40;99.90;;;;;;6187390;23;20021;-83
2022/01/03 01:40:52;;;;;;;25.20;5.18;;;8.50;99.90;;;;;;6158757;23;20024;-84
2022/01/03 01:43:25;;;;;;;31.45;5.43;;;8.50;99.90;;;;;;6158921;23;20056;-84
2022/01/03 01:45:51;;;;;;;28.45;4.97;;;8.50;99.90;;;;;;6185146;23;20084;-85
2022/01/03 01:48:22;;;;;;;30.25;6.10;;;8.50;99.90;;;;;;6134197;23;20025;-85
2022/01/03 01:50:51;;;;;;;28.95;5.20;;;8.50;99.90;;;;;;6134037;23;20029;-85
2022/01/03 01:53:26;;;;;;;28.33;4.80;;;8.60;99.90;;;;;;6185062;23;20028;-85
2022/01/03 01:55:54;;;;;;;37.33;5.53;;;8.60;99.90;;;;;;6134981;23;20025;-85
2022/01/03 01:58:34;;;;;;;26.48;4.65;;;8.60;99.90;;;;;;6159502;23;20024;-86
2022/01/03 02:01:13;;;;;;;27.58;4.70;;;8.60;99.90;;;;;;6158505;23;20025;-84
2022/01/03 02:03:45;;;;;;;26.05;4.22;;;8.60;99.90;;;;;;6159226;23;20024;-83
2022/01/03 02:06:42;;;;;;;26.55;4.75;;;8.60;99.90;;;;;;6185102;23;20060;-84
2022/01/03 02:09:17;;;;;;;28.55;5.82;;;8.60;99.90;;;;;;6158246;23;20099;-85
2022/01/03 02:11:55;;;;;;;34.30;6.90;;;8.60;99.90;;;;;;6183106;23;20028;-86
2022/01/03 02:14:36;;;;;;;30.60;5.70;;;8.60;99.90;;;;;;6134426;23;20079;-85
2022/01/03 02:17:02;;;;;;;33.42;5.35;;;8.60;99.90;;;;;;6133625;23;20029;-85
2022/01/03 02:19:30;;;;;;;29.45;6.03;;;8.60;99.90;;;;;;6158531;23;20031;-85
2022/01/03 02:21:56;;;;;;;23.92;4.60;;;8.60;99.90;;;;;;6184326;23;20025;-85
2022/01/03 02:24:21;;;;;;;30.52;6.53;;;8.60;99.90;;;;;;6158345;23;20067;-84
2022/01/03 02:26:47;;;;;;;31.92;6.70;;;8.60;99.90;;;;;;6161650;23;20048;-85
2022/01/03 02:29:13;;;;;;;37.13;5.82;;;8.70;99.90;;;;;;6164445;23;20032;-86
2022/01/03 02:31:43;;;;;;;30.10;5.72;;;8.70;99.90;;;;;;6160551;23;20017;-84
2022/01/03 02:34:09;;;;;;;37.60;5.80;;;8.60;99.90;;;;;;6158147;23;20032;-84
2022/01/03 02:36:36;;;;;;;29.17;5.25;;;8.70;99.90;;;;;;6184667;23;20028;-84
2022/01/03 02:39:03;;;;;;;26.52;5.35;;;8.70;99.90;;;;;;6184791;23;20393;-85
2022/01/03 02:41:29;;;;;;;35.53;5.70;;;8.70;99.90;;;;;;6184361;23;20027;-85
2022/01/03 02:43:55;;;;;;;29.38;5.47;;;8.80;99.90;;;;;;6133418;23;20060;-85
2022/01/03 02:46:21;;;;;;;35.45;5.15;;;8.70;99.90;;;;;;6158043;23;20032;-85
2022/01/03 02:48:47;;;;;;;31.20;5.43;;;8.70;99.90;;;;;;6184331;23;20555;-85
2022/01/03 02:51:14;;;;;;;28.58;5.00;;;8.60;99.90;;;;;;6185022;23;20033;-84
2022/01/03 02:53:39;;;;;;;30.13;6.18;;;8.60;99.90;;;;;;6184602;23;20031;-84
2022/01/03 02:56:06;;;;;;;32.95;6.43;;;8.60;99.90;;;;;;6159369;23;20060;-85
2022/01/03 02:58:31;;;;;;;35.33;7.15;;;8.60;99.90;;;;;;6157725;23;20055;-84
2022/01/03 03:00:57;;;;;;;25.25;4.75;;;8.60;99.90;;;;;;6158340;23;20021;-85
2022/01/03 03:03:23;;;;;;;32.13;6.35;;;8.60;99.90;;;;;;6109131;23;20469;-84
2022/01/03 03:05:55;;;;;;;33.40;5.95;;;8.50;99.90;;;;;;6158017;23;20025;-85
2022/01/03 03:08:21;;;;;;;33.88;6.53;;;8.50;99.90;;;;;;6184866;23;20433;-84
2022/01/03 03:10:47;;;;;;;31.38;6.60;;;8.60;99.90;;;;;;6184766;23;20033;-84
2022/01/03 03:13:13;;;;;;;31.88;4.68;;;8.50;99.90;;;;;;6133620;23;20338;-84
2022/01/03 03:15:39;;;;;;;34.67;5.30;;;8.50;99.90;;;;;;6184474;23;20032;-84
2022/01/03 03:18:05;;;;;;;35.92;5.28;;;8.50;99.90;;;;;;6163058;23;20017;-84
2022/01/03 03:20:32;;;;;;;31.13;7.10;;;8.50;99.90;;;;;;6163738;23;20021;-83
2022/01/03 03:23:00;;;;;;;40.40;7.63;;;8.50;99.90;;;;;;6160948;23;20118;-83
2022/01/03 03:25:34;;;;;;;27.23;5.35;;;8.50;99.90;;;;;;6159654;23;20021;-85
2022/01/03 03:28:04;;;;;;;39.30;5.63;;;8.50;99.90;;;;;;6184233;23;20457;-84
2022/01/03 03:30:35;;;;;;;28.67;5.40;;;8.50;99.90;;;;;;6158096;23;20449;-85
2022/01/03 03:33:08;;;;;;;33.67;5.93;;;8.50;99.90;;;;;;6158952;23;20071;-85
2022/01/03 03:35:34;;;;;;;35.83;7.20;;;8.40;99.90;;;;;;6157875;23;20483;-85
2022/01/03 03:38:00;;;;;;;42.50;8.10;;;8.50;99.90;;;;;;6156641;23;20352;-85
2022/01/03 03:40:26;;;;;;;38.80;6.03;;;8.40;99.90;;;;;;6184371;23;20025;-85
2022/01/03 03:42:53;;;;;;;29.65;6.40;;;8.40;99.90;;;;;;6158039;23;20043;-85
2022/01/03 03:45:19;;;;;;;33.58;6.13;;;8.40;99.90;;;;;;6183696;23;20028;-85
2022/01/03 03:47:45;;;;;;;31.08;6.18;;;8.40;99.90;;;;;;6160160;23;20028;-83
2022/01/03 03:50:12;;;;;;;40.92;5.43;;;8.40;99.90;;;;;;6186059;23;20095;-84
2022/01/03 03:52:39;;;;;;;47.85;9.57;;;8.40;99.90;;;;;;6159939;23;20017;-84
2022/01/03 03:55:06;;;;;;;44.45;8.38;;;8.40;99.90;;;;;;6160228;23;20461;-84
2022/01/03 03:57:33;;;;;;;48.08;9.18;;;8.40;99.90;;;;;;6190898;23;20093;-84
2022/01/03 03:59:59;;;;;;;37.10;6.95;;;8.40;99.90;;;;;;6166104;23;20032;-85
2022/01/03 04:02:25;;;;;;;37.42;7.25;;;8.40;99.90;;;;;;6159227;23;20029;-84
2022/01/03 04:04:51;;;;;;;35.85;7.22;;;8.40;99.90;;;;;;6159314;23;20021;-85
2022/01/03 04:07:17;;;;;;;33.50;6.05;;;8.40;99.90;;;;;;6159388;23;20039;-86
2022/01/03 04:09:43;;;;;;;39.58;6.97;;;8.40;99.90;;;;;;6185839;23;20044;-85
2022/01/03 04:12:09;;;;;;;34.80;6.60;;;8.40;99.90;;;;;;6159425;23;20032;-85
2022/01/03 04:14:35;;;;;;;35.90;7.25;;;8.40;99.90;;;;;;6185786;23;20017;-84
2022/01/03 04:17:09;;;;;;;29.40;5.88;;;8.40;99.90;;;;;;6136479;23;20100;-85
2022/01/03 04:19:40;;;;;;;30.02;5.38;;;8.50;99.90;;;;;;6135005;23;20025;-84
2022/01/03 04:22:06;;;;;;;41.25;7.45;;;8.50;99.90;;;;;;6134624;23;20033;-85
2022/01/03 04:24:31;;;;;;;45.50;7.32;;;8.60;99.90;;;;;;6159167;23;20021;-85
2022/01/03 04:26:57;;;;;;;29.83;5.97;;;8.60;99.90;;;;;;6159457;23;20021;-86
2022/01/03 04:29:23;;;;;;;35.13;5.50;;;8.60;99.90;;;;;;6185979;23;20083;-84
2022/01/03 04:31:49;;;;;;;37.90;6.75;;;8.60;99.90;;;;;;6135979;23;20048;-86
2022/01/03 04:34:15;;;;;;;39.80;6.68;;;8.50;99.90;;;;;;6160761;23;20025;-85
2022/01/03 04:36:41;;;;;;;28.17;6.82;;;8.50;99.90;;;;;;6185391;23;20037;-85
2022/01/03 04:39:08;;;;;;;37.55;7.75;;;8.50;99.90;;;;;;6185541;23;20425;-85
2022/01/03 04:41:34;;;;;;;35.60;5.65;;;8.40;99.90;;;;;;6134694;23;20476;-85
2022/01/03 04:44:00;;;;;;;31.45;6.15;;;8.40;99.90;;;;;;6189981;23;20024;-85
2022/01/03 04:46:27;;;;;;;35.63;6.85;;;8.40;99.90;;;;;;6117213;23;20120;-85
2022/01/03 04:48:54;;;;;;;37.53;6.55;;;8.40;99.90;;;;;;6185948;23;20072;-85
2022/01/03 04:51:25;;;;;;;25.98;6.13;;;8.40;99.90;;;;;;6185477;23;20052;-85
2022/01/03 04:53:51;;;;;;;39.33;6.88;;;8.40;99.90;;;;;;6184150;23;20021;-86
2022/01/03 04:56:17;;;;;;;37.10;5.47;;;8.40;99.90;;;;;;6184350;23;20094;-86
2022/01/03 04:58:43;;;;;;;33.65;6.72;;;8.30;99.90;;;;;;6159263;23;20025;-84
2022/01/03 05:01:14;;;;;;;48.97;7.47;;;8.30;99.90;;;;;;6183703;23;20090;-85
2022/01/03 05:03:40;;;;;;;35.42;7.35;;;8.30;99.90;;;;;;6136346;23;20345;-85
2022/01/03 05:06:06;;;;;;;37.15;6.70;;;8.20;99.90;;;;;;6185353;23;20874;-85
2022/01/03 05:08:33;;;;;;;30.30;5.68;;;8.20;99.90;;;;;;6159005;23;20029;-85
2022/01/03 05:11:02;;;;;;;41.47;5.72;;;8.20;99.90;;;;;;6159049;23;20025;-85
2022/01/03 05:13:30;;;;;;;36.47;7.78;;;8.30;99.90;;;;;;6185271;23;20032;-85
2022/01/03 05:15:56;;;;;;;37.75;6.40;;;8.30;99.90;;;;;;6134041;23;20028;-85
2022/01/03 05:18:22;;;;;;;34.75;7.22;;;8.30;99.90;;;;;;6133225;23;20346;-85
2022/01/03 05:20:48;;;;;;;28.23;6.68;;;8.30;99.90;;;;;;6134235;23;20029;-85
2022/01/03 05:23:13;;;;;;;32.70;6.18;;;8.30;99.90;;;;;;6158629;23;20143;-85
2022/01/03 05:25:40;;;;;;;42.75;7.60;;;8.30;99.90;;;;;;6158509;23;20028;-84
2022/01/03 05:28:05;;;;;;;39.00;7.93;;;8.30;99.90;;;;;;6162278;23;20457;-85
2022/01/03 05:30:31;;;;;;;43.10;7.25;;;8.20;99.90;;;;;;6166157;23;20048;-85
2022/01/03 05:32:57;;;;;;;32.63;5.53;;;8.30;99.90;;;;;;6190967;23;20023;-85
2022/01/03 05:35:23;;;;;;;32.88;6.90;;;8.20;99.90;;;;;;6159050;23;20032;-85
2022/01/03 05:37:49;;;;;;;39.22;8.15;;;8.20;99.90;;;;;;6160204;23;20025;-84
2022/01/03 05:40:15;;;;;;;38.55;7.25;;;8.30;99.90;;;;;;6160917;23;20025;-85
2022/01/03 05:42:42;;;;;;;35.80;6.40;;;8.30;99.90;;;;;;6159215;23;20060;-83
2022/01/03 05:45:08;;;;;;;41.92;9.25;;;8.40;99.90;;;;;;6183762;23;20021;-85
2022/01/03 05:47:35;;;;;;;40.28;7.00;;;8.40;99.90;;;;;;6134028;23;20076;-85
2022/01/03 05:50:02;;;;;;;43.28;7.78;;;8.40;99.90;;;;;;6182968;23;20025;-85
2022/01/03 05:52:27;;;;;;;49.83;8.68;;;8.40;99.90;;;;;;6159505;23;20024;-87
2022/01/03 05:54:54;;;;;;;39.85;7.53;;;8.40;99.90;;;;;;6158767;23;20425;-85
2022/01/03 05:57:20;;;;;;;40.78;6.88;;;8.40;99.90;;;;;;6183457;23;20028;-85
2022/01/03 05:59:45;;;;;;;39.15;7.53;;;8.30;99.90;;;;;;6158071;23;20025;-84
2022/01/03 06:02:31;;;;;;;34.70;6.32;;;8.40;99.90;;;;;;6135871;23;20055;-84
2022/01/03 06:05:00;;;;;;;54.08;8.88;;;8.30;99.90;;;;;;6183220;23;20380;-85
2022/01/03 06:07:26;;;;;;;41.45;7.00;;;8.30;99.90;;;;;;6184594;23;20069;-86
2022/01/03 06:09:52;;;;;;;33.42;6.57;;;8.30;99.90;;;;;;6184458;23;20028;-85
2022/01/03 06:12:19;;;;;;;33.67;6.60;;;8.30;99.90;;;;;;6186029;23;20033;-85
2022/01/03 06:14:46;;;;;;;55.67;7.68;;;8.30;99.90;;;;;;6185166;23;20025;-86
2022/01/03 06:17:12;;;;;;;42.13;8.95;;;8.30;99.90;;;;;;6159082;23;20027;-86
2022/01/03 06:19:42;;;;;;;44.13;8.52;;;8.30;99.90;;;;;;6165675;23;20024;-85
2022/01/03 06:22:09;;;;;;;44.33;8.77;;;8.30;99.90;;;;;;6093904;23;20025;-85
2022/01/03 06:24:37;;;;;;;32.60;7.38;;;8.30;99.90;;;;;;6189164;23;20484;-85
2022/01/03 06:27:03;;;;;;;39.92;8.23;;;8.30;99.90;;;;;;6136659;23;20025;-84
2022/01/03 06:29:29;;;;;;;33.92;6.78;;;8.40;99.90;;;;;;6110814;23;20025;-84
2022/01/03 06:31:58;;;;;;;46.42;6.93;;;8.30;99.90;;;;;;6184765;23;20029;-85
2022/01/03 06:34:24;;;;;;;33.03;6.45;;;8.30;99.90;;;;;;6184882;23;20021;-84
2022/01/03 06:36:50;;;;;;;40.67;6.18;;;8.30;99.90;;;;;;6157615;23;20025;-85
2022/01/03 06:39:16;;;;;;;46.17;7.00;;;8.40;99.90;;;;;;6158471;23;20025;-85
2022/01/03 06:41:43;;;;;;;41.10;6.93;;;8.30;99.90;;;;;;6182986;23;20060;-85
2022/01/03 06:44:09;;;;;;;44.20;7.63;;;8.30;99.90;;;;;;6158394;23;20040;-86
2022/01/03 06:46:35;;;;;;;49.38;7.43;;;8.30;99.90;;;;;;6184424;23;20429;-86
2022/01/03 06:49:05;;;;;;;36.75;8.48;;;8.40;99.90;;;;;;6160022;23;20025;-85
2022/01/03 06:51:34;;;;;;;39.15;6.65;;;8.40;99.90;;;;;;6184765;23;20044;-86
2022/01/03 06:54:05;;;;;;;36.75;8.38;;;8.40;99.90;;;;;;6158065;23;20047;-85
2022/01/03 06:56:31;;;;;;;29.98;5.95;;;8.40;99.90;;;;;;6184366;23;20760;-86
2022/01/03 06:58:57;;;;;;;37.10;6.35;;;8.40;99.90;;;;;;6158096;23;20021;-86
2022/01/03 07:01:23;;;;;;;47.38;8.00;;;8.50;99.90;;;;;;6157995;23;20499;-85
2022/01/03 07:03:49;;;;;;;39.25;7.70;;;8.40;99.90;;;;;;6158638;23;20025;-85
2022/01/03 07:06:15;;;;;;;39.65;8.93;;;8.50;99.90;;;;;;6160506;23;20100;-84
2022/01/03 07:08:41;;;;;;;37.42;7.40;;;8.50;99.90;;;;;;6191869;23;20028;-86
2022/01/03 07:11:06;;;;;;;39.15;7.97;;;8.40;99.90;;;;;;6193890;23;20096;-85
2022/01/03 07:13:41;;;;;;;40.58;7.47;;;8.40;99.90;;;;;;6192005;23;20025;-85
2022/01/03 07:18:57;;;;;;;43.72;6.97;;;8.40;99.90;;;;;;6158503;23;20263;-86
2022/01/03 07:21:24;;;;;;;37.95;8.48;;;8.40;99.90;;;;;;6159278;23;20690;-85
2022/01/03 07:23:51;;;;;;;29.02;7.15;;;8.40;99.90;;;;;;6186442;23;20352;-84
2022/01/03 07:26:20;;;;;;;52.92;8.85;;;8.40;99.90;;;;;;6159610;23;20025;-85
2022/01/03 07:28:46;;;;;;;49.05;8.55;;;8.30;99.90;;;;;;6159593;23;20021;-86
2022/01/03 07:31:12;;;;;;;35.10;8.25;;;8.30;99.90;;;;;;6160057;23;20104;-85
2022/01/03 07:33:38;;;;;;;41.33;7.00;;;8.30;99.90;;;;;;6160027;23;20079;-86
2022/01/03 07:36:04;;;;;;;37.88;6.93;;;8.30;99.90;;;;;;6187136;23;20025;-85
2022/01/03 07:38:30;;;;;;;38.83;7.80;;;8.30;99.90;;;;;;6159980;23;20028;-85
2022/01/03 07:40:55;;;;;;;44.13;7.13;;;8.30;99.90;;;;;;6135179;23;20021;-85
2022/01/03 07:43:21;;;;;;;29.58;6.60;;;8.40;99.90;;;;;;6163765;23;20101;-86
2022/01/03 07:45:47;;;;;;;44.03;7.70;;;8.30;99.90;;;;;;6187871;23;20109;-86
2022/01/03 07:48:13;;;;;;;37.38;7.90;;;8.30;99.90;;;;;;6163066;23;20025;-85
2022/01/03 07:50:40;;;;;;;41.90;7.97;;;8.30;99.90;;;;;;6141532;23;20029;-85
2022/01/03 07:53:05;;;;;;;38.65;6.45;;;8.30;99.90;;;;;;6194394;23;20021;-85
2022/01/03 07:55:31;;;;;;;39.33;7.15;;;8.40;99.90;;;;;;6161943;23;20027;-84
2022/01/03 07:57:57;;;;;;;41.15;8.80;;;8.40;99.90;;;;;;6186447;23;20437;-85
2022/01/03 08:00:23;;;;;;;44.95;8.95;;;8.40;99.90;;;;;;6186382;23;20021;-85
2022/01/03 08:02:49;;;;;;;34.50;7.57;;;8.40;99.90;;;;;;6160343;23;20023;-86
2022/01/03 08:05:15;;;;;;;39.40;7.75;;;8.40;99.90;;;;;;6184352;23;20406;-85
2022/01/03 08:07:43;;;;;;;52.75;7.13;;;8.30;99.90;;;;;;6159611;23;20100;-85
2022/01/03 08:10:10;;;;;;;37.95;6.95;;;8.30;99.90;;;;;;6185045;23;20453;-86
2022/01/03 08:12:37;;;;;;;43.22;7.47;;;8.30;99.90;;;;;;6185772;23;20033;-85
2022/01/03 08:15:04;;;;;;;41.58;6.65;;;8.40;99.90;;;;;;6187137;23;20021;-85
2022/01/03 08:17:30;;;;;;;40.42;6.95;;;8.40;99.90;;;;;;6184399;23;20360;-84
2022/01/03 08:19:56;;;;;;;38.75;7.95;;;8.40;99.90;;;;;;6134769;23;20025;-86
2022/01/03 08:22:22;;;;;;;38.70;6.90;;;8.40;99.90;;;;;;6158826;23;20100;-84
2022/01/03 08:24:48;;;;;;;36.05;5.82;;;8.40;99.90;;;;;;6159677;23;20036;-85
2022/01/03 08:27:13;;;;;;;33.33;5.93;;;8.40;99.90;;;;;;6184632;23;20357;-85
2022/01/03 08:29:39;;;;;;;30.13;6.15;;;8.40;99.90;;;;;;6184562;23;20025;-85
2022/01/03 08:32:06;;;;;;;33.63;5.80;;;8.50;99.90;;;;;;6185667;23;20063;-86
2022/01/03 08:34:31;;;;;;;41.70;7.13;;;8.50;99.90;;;;;;6184087;23;20104;-85
2022/01/03 08:37:00;;;;;;;33.90;6.47;;;8.60;99.90;;;;;;6186018;23;20060;-86
2022/01/03 08:39:26;;;;;;;37.13;6.78;;;8.60;99.90;;;;;;6134872;23;20017;-86
2022/01/03 08:42:02;;;;;;;36.38;8.93;;;8.60;99.90;;;;;;6113015;23;20025;-86
2022/01/03 08:44:27;;;;;;;38.35;6.85;;;8.60;99.90;;;;;;6184562;23;20025;-85
2022/01/03 08:46:53;;;;;;;46.47;8.07;;;8.60;99.90;;;;;;6158935;23;20031;-85
2022/01/03 08:49:19;;;;;;;37.35;6.40;;;8.70;99.90;;;;;;6134505;23;20063;-86
2022/01/03 08:51:45;;;;;;;36.22;7.97;;;8.70;99.90;;;;;;6159583;23;20025;-86
2022/01/03 08:54:14;;;;;;;42.97;7.22;;;8.80;99.90;;;;;;6163345;23;20024;-87
2022/01/03 08:56:41;;;;;;;46.00;6.85;;;8.80;99.90;;;;;;6193793;23;20132;-86
2022/01/03 08:59:11;;;;;;;32.80;5.93;;;8.80;99.90;;;;;;6156951;23;20029;-86
2022/01/03 09:01:39;;;;;;;31.30;5.65;;;8.80;99.90;;;;;;6157235;23;20029;-86
2022/01/03 09:04:05;;;;;;;36.20;7.10;;;8.80;99.90;;;;;;6185423;23;20021;-83
2022/01/03 09:06:36;;;;;;;34.13;6.15;;;8.80;99.90;;;;;;6110141;23;20028;-85
2022/01/03 09:09:05;;;;;;;36.65;7.30;;;8.80;99.90;;;;;;6158526;23;20058;-85
2022/01/03 09:11:31;;;;;;;49.70;8.45;;;8.80;99.90;;;;;;6134905;23;20021;-85
2022/01/03 09:13:57;;;;;;;44.40;7.15;;;8.80;99.90;;;;;;6188103;23;20083;-85
2022/01/03 09:16:24;;;;;;;41.13;7.03;;;8.70;99.90;;;;;;6135046;23;20023;-85
2022/01/03 09:18:49;;;;;;;46.10;7.57;;;8.70;99.90;;;;;;6158916;23;20048;-85
2022/01/03 09:21:15;;;;;;;37.33;7.60;;;8.70;99.90;;;;;;6158774;23;20033;-86
2022/01/03 09:23:47;;;;;;;43.10;7.85;;;8.80;99.90;;;;;;6184478;23;20079;-85
2022/01/03 09:28:57;;;;;;;44.65;6.53;;;8.90;99.90;;;;;;6182698;23;20029;-86
2022/01/03 09:31:31;;;;;;;56.08;9.18;;;8.90;99.90;;;;;;6185414;23;20040;-85
2022/01/03 09:33:59;;;;;;;44.67;7.95;;;8.90;99.90;;;;;;6158389;23;20479;-87
2022/01/03 09:36:27;;;;;;;39.17;6.95;;;9.00;99.90;;;;;;6185588;23;20021;-85
2022/01/03 09:38:53;;;;;;;35.10;8.15;;;9.00;99.90;;;;;;6186110;23;20460;-85
2022/01/03 09:41:22;;;;;;;40.22;7.65;;;9.00;99.90;;;;;;6161257;23;20025;-86
2022/01/03 09:43:55;;;;;;;32.95;6.45;;;9.00;99.90;;;;;;6139943;23;20021;-85
2022/01/03 09:46:23;;;;;;;41.03;6.93;;;9.00;99.90;;;;;;6170949;23;20393;-82
2022/01/03 09:48:53;;;;;;;32.05;5.82;;;9.10;99.90;;;;;;6167239;23;20080;-85
2022/01/03 09:51:27;;;;;;;36.55;6.57;;;9.10;99.90;;;;;;6159550;23;20335;-86
2022/01/03 09:53:55;;;;;;;36.35;6.40;;;9.20;99.90;;;;;;6182853;23;20017;-86
2022/01/03 09:56:22;;;;;;;32.92;6.45;;;9.30;99.90;;;;;;6158671;23;20412;-85
2022/01/03 09:58:55;;;;;;;33.40;7.53;;;9.30;99.90;;;;;;6184167;23;20052;-84
2022/01/03 10:01:22;;;;;;;38.47;6.93;;;9.40;99.90;;;;;;6157748;23;20057;-84
2022/01/03 10:03:49;;;;;;;26.25;5.68;;;9.50;99.90;;;;;;6133889;23;20107;-85
2022/01/03 10:06:18;;;;;;;27.90;6.50;;;9.50;99.90;;;;;;6108334;23;20021;-85
2022/01/03 10:08:50;;;;;;;29.88;6.90;;;9.70;99.90;;;;;;6133981;23;20116;-85
2022/01/03 10:11:18;;;;;;;34.75;6.10;;;9.70;99.90;;;;;;6183182;23;20449;-84
2022/01/03 10:13:44;;;;;;;31.02;6.10;;;9.60;99.90;;;;;;6158733;23;20025;-85
2022/01/03 10:16:09;;;;;;;35.47;5.70;;;9.60;99.90;;;;;;6183812;23;20025;-85
2022/01/03 10:18:35;;;;;;;33.90;7.63;;;9.50;99.90;;;;;;6133023;23;20096;-85
2022/01/03 10:21:03;;;;;;;31.13;6.70;;;9.50;99.90;;;;;;6158376;23;20032;-86
2022/01/03 10:23:29;;;;;;;36.72;7.88;;;9.50;99.90;;;;;;6185161;23;20067;-86
2022/01/03 10:26:16;;;;;;;32.03;6.15;;;9.60;99.90;;;;;;6158198;23;20024;-85
2022/01/03 10:28:42;;;;;;;36.00;6.25;;;9.60;99.90;;;;;;6158399;23;20100;-86
2022/01/03 10:31:17;;;;;;;43.58;6.65;;;9.50;99.90;;;;;;6183063;23;20025;-85
2022/01/03 10:33:44;;;;;;;32.40;5.95;;;9.50;99.90;;;;;;6184399;23;20571;-86
2022/01/03 10:36:26;;;;;;;41.33;6.75;;;9.80;99.90;;;;;;6158360;23;20021;-85
2022/01/03 10:38:53;;;;;;;29.17;6.53;;;10.10;99.90;;;;;;6184952;23;20060;-85
2022/01/03 10:41:21;;;;;;;29.52;6.03;;;10.20;99.90;;;;;;6187573;23;20342;-86
2022/01/03 10:43:50;;;;;;;28.45;5.25;;;10.20;99.90;;;;;;6191914;23;20361;-83
2022/01/03 10:46:24;;;;;;;34.22;6.85;;;10.10;99.90;;;;;;6193132;23;20025;-85
2022/01/03 10:49:21;;;;;;;32.25;5.25;;;10.10;99.90;;;;;;6159280;23;20024;-87
2022/01/03 10:51:48;;;;;;;28.80;5.75;;;10.20;99.90;;;;;;6157602;23;20031;-85
2022/01/03 10:54:18;;;;;;;34.75;6.70;;;10.30;99.90;;;;;;6132860;23;20540;-84
2022/01/03 10:56:48;;;;;;;37.45;5.95;;;10.30;99.90;;;;;;6184924;23;20353;-86
2022/01/03 10:59:24;;;;;;;32.00;6.90;;;10.30;99.90;;;;;;6184759;23;20025;-85
2022/01/03 11:01:59;;;;;;;31.25;6.45;;;10.30;99.90;;;;;;6158446;23;20024;-86
2022/01/03 11:04:54;;;;;;;28.27;5.28;;;10.30;99.90;;;;;;6133536;23;20018;-85
2022/01/03 11:13:18;;;;;;;;;;;10.60;99.90;;;;;;6182319;23;20465;-86
2022/01/03 11:15:55;;;;;;;31.30;6.93;;;10.70;99.90;;;;;;6157917;23;20329;-85
2022/01/03 11:18:27;;;;;;;25.40;4.65;;;10.90;99.90;;;;;;6158055;23;20407;-87
2022/01/03 11:21:01;;;;;;;29.40;6.07;;;11.10;99.90;;;;;;6183764;23;20029;-85
2022/01/03 11:23:35;;;;;;;27.33;5.53;;;11.10;99.90;;;;;;6182081;23;20079;-85
2022/01/03 11:26:16;;;;;;;30.27;7.47;;;11.10;99.90;;;;;;6133193;23;20108;-86
2022/01/03 11:28:48;;;;;;;32.35;5.57;;;11.10;99.90;;;;;;6157715;23;20132;-87
2022/01/03 11:31:17;;;;;;;35.65;6.93;;;11.10;99.90;;;;;;6157452;23;20025;-85
2022/01/03 11:33:49;;;;;;;31.40;5.97;;;11.10;99.90;;;;;;6134287;23;20021;-85
2022/01/03 11:36:17;;;;;;;26.58;5.28;;;11.20;99.90;;;;;;6182864;23;20487;-84
2022/01/03 11:38:45;;;;;;;32.97;6.60;;;11.30;99.90;;;;;;6184319;23;20037;-84
2022/01/03 11:41:12;;;;;;;35.13;6.60;;;11.60;99.90;;;;;;6159345;23;20052;-84
2022/01/03 11:43:40;;;;;;;31.85;5.55;;;11.80;99.90;;;;;;6188904;23;20402;-84
2022/01/03 11:46:09;;;;;;;33.45;5.53;;;11.90;99.90;;;;;;6166276;23;20064;-86
2022/01/03 11:48:36;;;;;;;28.13;6.13;;;11.80;99.90;;;;;;6138853;23;20348;-85
2022/01/03 11:51:08;;;;;;;23.23;4.40;;;11.90;99.90;;;;;;6182765;23;20051;-86
2022/01/03 11:53:49;;;;;;;28.45;5.30;;;11.80;99.90;;;;;;6184246;23;20080;-86
2022/01/03 11:56:17;;;;;;;33.95;6.00;;;11.70;99.90;;;;;;6184054;23;20021;-85
2022/01/03 12:04:37;;;;;;;21.20;5.10;;;11.00;99.90;;;;;;6182680;23;20028;-86
2022/01/03 12:07:09;;;;;;;28.77;7.47;;;10.70;99.90;;;;;;6183680;23;20025;-85
2022/01/03 12:09:38;;;;;;;32.25;8.18;;;10.50;99.90;;;;;;6161727;23;20099;-84
2022/01/03 12:12:05;;;;;;;36.53;5.13;;;10.40;99.90;;;;;;6185375;23;20036;-85
2022/01/03 12:14:46;;;;;;;39.20;6.25;;;10.50;99.90;;;;;;6184148;23;20021;-86
2022/01/03 12:17:15;;;;;;;33.17;5.53;;;10.30;99.90;;;;;;6184281;23;20021;-86
2022/01/03 12:19:43;;;;;;;29.48;6.57;;;10.30;99.90;;;;;;6154776;23;20031;-85
2022/01/03 12:22:27;;;;;;;38.33;7.30;;;10.20;99.90;;;;;;6073674;23;20038;-85
2022/01/03 12:24:55;;;;;;;31.77;5.57;;;10.10;99.90;;;;;;6070061;23;20081;-86
2022/01/03 12:27:26;;;;;;;26.98;6.20;;;10.00;99.90;;;;;;6069275;23;20324;-87
2022/01/03 12:29:57;;;;;;;34.70;5.93;;;10.00;99.90;;;;;;6094341;23;20070;-85
2022/01/03 12:32:28;;;;;;;33.95;5.95;;;10.00;99.90;;;;;;6070164;23;20031;-85
2022/01/03 12:35:08;;;;;;;35.15;5.40;;;9.90;99.90;;;;;;6070401;23;20033;-85
2022/01/03 12:37:44;;;;;;;24.73;5.78;;;9.90;99.90;;;;;;6048320;23;20037;-86
2022/01/03 12:40:31;;;;;;;33.85;7.13;;;9.90;99.90;;;;;;6069382;23;20053;-85
2022/01/03 12:43:18;;;;;;;26.42;5.10;;;9.90;99.90;;;;;;6045374;23;20027;-86
2022/01/03 12:45:45;;;;;;;42.45;5.97;;;10.00;99.90;;;;;;6068862;23;20029;-87
2022/01/03 12:50:47;;;;;;;27.40;5.18;;;10.10;99.90;;;;;;6069509;23;20103;-85
2022/01/03 12:53:32;;;;;;;27.98;5.63;;;10.10;99.90;;;;;;6097135;23;20021;-86
2022/01/03 12:56:01;;;;;;;32.22;6.85;;;10.00;99.90;;;;;;6156002;23;20481;-85
2022/01/03 12:58:26;;;;;;;29.85;7.78;;;10.10;99.90;;;;;;6156331;23;20100;-85
2022/01/03 13:01:16;;;;;;;35.47;5.88;;;10.20;99.90;;;;;;6180796;23;20030;-84
2022/01/03 13:03:52;;;;;;;29.40;6.30;;;10.20;99.90;;;;;;6150831;23;20338;-84
2022/01/03 13:06:22;;;;;;;32.40;5.47;;;10.20;99.90;;;;;;6159517;23;20088;-85
2022/01/03 13:08:48;;;;;;;31.65;5.80;;;10.30;99.90;;;;;;6153408;23;20029;-86
2022/01/03 13:11:17;;;;;;;27.73;4.97;;;10.30;99.90;;;;;;6178314;23;20060;-86
2022/01/03 13:13:45;;;;;;;30.40;6.13;;;10.30;99.90;;;;;;6104217;23;20308;-87
2022/01/03 13:16:20;;;;;;;35.30;6.57;;;10.30;99.90;;;;;;6181066;23;20488;-86